Terminal Aerodrome Forecast
Issued by NWS

Home | Current Version | Previous Version | Text Only | Print | Product List | Glossary On
Versions: 1 2 3 4 5 6 7 8 9 10 11 12 13 14 15 16 17 18 19 20 21
000
FTUS43 KDMX 301328 AAC
TAFOTM
TAF AMD
KOTM 301328Z 3013/3112 33004KT 6SM BR OVC005
     FM301500 35004KT P6SM BKN035
     FM302200 36005KT P6SM SCT060
     FM310100 04004KT P6SM SCT100
     FM310900 VRB03KT 3SM BR SCT020=

USA.gov is the U.S. government's official web portal to all federal, state and local government web resources and services.